createdAt,value
2019-03-31T00:01:54.068Z,17.60
2019-03-31T00:04:21.589Z,13.80
2019-03-31T00:06:49.042Z,15.40
2019-03-31T00:09:16.598Z,18.00
2019-03-31T00:11:44.387Z,16.20
2019-03-31T00:14:11.890Z,5.60
2019-03-31T00:16:39.427Z,15.40
2019-03-31T00:19:07.213Z,15.40
2019-03-31T00:21:34.717Z,15.20
2019-03-31T00:24:02.250Z,14.20
2019-03-31T00:55:12.061Z,15.60
2019-03-31T00:57:39.631Z,12.60
2019-03-31T01:00:08.343Z,12.40
2019-03-31T01:02:35.922Z,13.40
2019-03-31T01:05:03.548Z,11.40
2019-03-31T01:07:31.740Z,12.60
2019-03-31T01:09:59.959Z,12.20
2019-03-31T01:12:28.294Z,10.80
2019-03-31T01:14:56.137Z,10.80
2019-03-31T01:17:23.705Z,10.80
2019-03-31T01:19:53.016Z,15.20
2019-03-31T01:22:20.614Z,12.60
2019-03-31T01:24:48.555Z,7.80
2019-03-31T01:27:17.754Z,11.80
2019-03-31T01:29:45.337Z,9.20
2019-03-31T01:32:13.292Z,13.40
2019-03-31T01:34:40.988Z,14.20
2019-03-31T01:37:08.566Z,12.60
2019-03-31T01:39:37.012Z,12.00
2019-03-31T01:42:04.669Z,12.60
2019-03-31T01:44:32.399Z,10.00
2019-03-31T01:47:00.345Z,11.80
2019-03-31T01:49:28.405Z,7.00
2019-03-31T01:51:56.042Z,16.80
2019-03-31T01:54:23.653Z,15.40
2019-03-31T01:56:51.727Z,16.40
2019-03-31T01:59:19.415Z,14.60
2019-03-31T02:02:03.287Z,10.80
2019-03-31T02:04:19.477Z,14.60
2019-03-31T02:06:47.114Z,12.40
2019-03-31T02:09:14.721Z,12.40
2019-03-31T02:11:44.627Z,9.40
2019-03-31T02:14:12.275Z,12.60
2019-03-31T02:16:39.992Z,12.40
2019-03-31T02:19:07.931Z,11.80
2019-03-31T02:21:37.892Z,15.40
2019-03-31T02:24:08.028Z,12.00
2019-03-31T02:26:35.635Z,12.20
2019-03-31T02:29:03.569Z,9.00
2019-03-31T02:31:31.197Z,9.20
2019-03-31T02:33:59.166Z,9.60
2019-03-31T02:36:27.172Z,10.60
2019-03-31T02:38:55.058Z,12.00
2019-03-31T02:41:22.688Z,11.20
2019-03-31T02:43:50.237Z,13.20
2019-03-31T02:46:17.844Z,12.40
2019-03-31T02:48:45.996Z,3.40
2019-03-31T02:51:13.616Z,12.00
2019-03-31T02:53:41.217Z,9.60
2019-03-31T02:56:08.714Z,12.00
2019-03-31T02:58:38.188Z,12.40
2019-03-31T03:01:08.761Z,7.00
2019-03-31T03:03:37.566Z,9.40
2019-03-31T03:06:05.404Z,9.00
2019-03-31T03:08:32.993Z,10.80
2019-03-31T03:11:00.515Z,10.40
2019-03-31T03:13:28.762Z,13.00
2019-03-31T03:15:56.394Z,10.00
2019-03-31T03:18:24.274Z,14.20
2019-03-31T03:20:53.935Z,3.60
2019-03-31T03:23:24.914Z,12.20
2019-03-31T03:25:56.101Z,12.00
2019-03-31T03:28:21.712Z,15.40
2019-03-31T03:30:49.431Z,13.00
2019-03-31T03:33:18.322Z,8.20
2019-03-31T03:35:46.430Z,10.60
2019-03-31T03:38:13.970Z,12.20
2019-03-31T03:40:41.560Z,13.00
2019-03-31T03:43:09.439Z,11.80
2019-03-31T03:45:40.423Z,6.80
2019-03-31T03:48:08.013Z,12.40
2019-03-31T03:50:38.096Z,11.20
2019-03-31T03:53:09.006Z,12.80
2019-03-31T03:55:36.593Z,7.80
2019-03-31T03:58:04.233Z,11.20
2019-03-31T04:00:31.823Z,12.00
2019-03-31T04:02:59.667Z,13.00
2019-03-31T04:05:27.283Z,11.20
2019-03-31T04:07:54.928Z,11.40
2019-03-31T04:10:22.796Z,10.40
2019-03-31T04:12:50.446Z,12.00
2019-03-31T04:15:17.999Z,9.40
2019-03-31T04:17:45.653Z,11.00
2019-03-31T04:20:13.847Z,10.80
2019-03-31T04:22:41.391Z,12.80
2019-03-31T04:25:08.956Z,7.00
2019-03-31T04:27:36.767Z,13.80
2019-03-31T04:30:04.308Z,12.60
2019-03-31T04:32:31.860Z,12.20
2019-03-31T04:34:59.470Z,12.80
2019-03-31T04:37:27.325Z,14.20
2019-03-31T04:39:54.963Z,13.80
2019-03-31T04:42:22.546Z,10.40
2019-03-31T04:44:50.023Z,9.40
2019-03-31T04:47:17.823Z,11.80
2019-03-31T04:49:45.400Z,9.80
2019-03-31T04:52:15.643Z,14.20
2019-03-31T04:54:43.211Z,14.20
2019-03-31T04:57:11.021Z,8.80
2019-03-31T04:59:38.615Z,11.60
2019-03-31T05:02:06.173Z,12.80
2019-03-31T05:04:33.712Z,11.20
2019-03-31T05:07:03.992Z,13.00
2019-03-31T05:09:31.524Z,11.20
2019-03-31T05:11:59.159Z,12.40
2019-03-31T05:14:26.706Z,13.80
2019-03-31T05:16:54.539Z,15.60
2019-03-31T05:19:22.138Z,13.40
2019-03-31T05:21:49.687Z,13.00
2019-03-31T05:24:17.267Z,11.60
2019-03-31T05:26:45.165Z,12.20
2019-03-31T05:29:13.659Z,12.60
2019-03-31T05:31:44.059Z,7.80
2019-03-31T05:34:19.378Z,10.40
2019-03-31T05:36:44.792Z,13.80
2019-03-31T05:39:12.435Z,12.20
2019-03-31T05:41:40.336Z,12.00
2019-03-31T05:44:09.745Z,11.60
2019-03-31T05:46:37.350Z,11.60
2019-03-31T05:49:04.883Z,10.60
2019-03-31T05:51:32.411Z,11.80
2019-03-31T05:54:03.201Z,15.40
2019-03-31T05:56:33.195Z,15.40
2019-03-31T05:59:07.906Z,12.20
2019-03-31T06:01:35.511Z,9.40
2019-03-31T06:04:03.100Z,13.40
2019-03-31T06:06:31.018Z,12.80
2019-03-31T06:08:58.609Z,12.20
2019-03-31T06:11:26.285Z,9.80
2019-03-31T06:13:56.955Z,17.60
2019-03-31T06:16:27.847Z,13.80
2019-03-31T06:18:56.949Z,11.20
2019-03-31T06:21:24.450Z,16.40
2019-03-31T06:23:52.321Z,15.80
2019-03-31T06:26:20.231Z,20.20
2019-03-31T06:28:47.879Z,17.20
2019-03-31T06:31:15.841Z,8.20
2019-03-31T06:33:43.315Z,17.40
2019-03-31T06:36:14.001Z,17.20
2019-03-31T06:38:41.519Z,16.40
2019-03-31T06:41:12.781Z,19.60
2019-03-31T06:43:40.369Z,15.20
2019-03-31T06:46:07.840Z,16.60
2019-03-31T06:48:35.724Z,16.00
2019-03-31T06:51:03.333Z,14.20
2019-03-31T06:53:30.880Z,18.60
2019-03-31T06:56:01.454Z,13.40
2019-03-31T06:58:28.982Z,19.20
2019-03-31T07:00:56.875Z,16.40
2019-03-31T07:03:27.818Z,16.00
2019-03-31T07:05:55.418Z,15.20
2019-03-31T07:08:24.315Z,14.20
2019-03-31T07:10:53.190Z,15.40
2019-03-31T07:13:20.873Z,15.40
2019-03-31T07:15:48.442Z,12.60
2019-03-31T07:18:16.453Z,18.40
2019-03-31T07:20:44.005Z,15.20
2019-03-31T07:23:14.017Z,16.00
2019-03-31T07:25:41.821Z,21.20
2019-03-31T07:28:09.342Z,19.80
2019-03-31T07:30:36.962Z,19.00
2019-03-31T07:33:04.792Z,15.20
2019-03-31T07:35:32.518Z,19.60
2019-03-31T07:38:02.157Z,19.00
2019-03-31T07:40:30.156Z,16.00
2019-03-31T07:42:58.115Z,19.00
2019-03-31T07:45:25.687Z,25.60
2019-03-31T07:47:53.592Z,21.20
2019-03-31T07:50:21.473Z,20.20
2019-03-31T07:52:49.011Z,24.40
2019-03-31T07:55:16.848Z,16.20
2019-03-31T07:57:44.351Z,14.60
2019-03-31T08:00:12.667Z,18.60
2019-03-31T08:02:42.900Z,24.20
2019-03-31T08:05:10.401Z,21.00
2019-03-31T08:07:37.994Z,22.80
2019-03-31T08:10:05.853Z,20.60
2019-03-31T08:12:33.391Z,24.80
2019-03-31T08:15:00.960Z,15.80
2019-03-31T08:17:28.926Z,19.00
2019-03-31T08:19:56.541Z,18.00
2019-03-31T08:22:24.052Z,19.00
2019-03-31T08:24:53.063Z,19.80
2019-03-31T08:27:20.638Z,19.40
2019-03-31T08:29:55.671Z,21.00
2019-03-31T08:32:20.484Z,20.60
2019-03-31T08:34:48.416Z,18.60
2019-03-31T08:37:16.021Z,21.00
2019-03-31T08:39:43.878Z,18.40
2019-03-31T08:42:11.793Z,21.00
2019-03-31T08:44:39.410Z,22.80
2019-03-31T08:47:08.549Z,21.20
2019-03-31T08:49:36.227Z,21.80
2019-03-31T08:52:03.812Z,22.80
2019-03-31T08:54:31.669Z,20.20
2019-03-31T08:57:02.645Z,21.20
2019-03-31T08:59:30.244Z,19.00
2019-03-31T09:01:57.942Z,14.60
2019-03-31T09:04:28.645Z,16.60
2019-03-31T09:06:56.544Z,21.40
2019-03-31T09:09:24.137Z,17.60
2019-03-31T09:11:58.780Z,11.00
2019-03-31T09:14:26.575Z,12.20
2019-03-31T09:16:55.408Z,20.00
2019-03-31T09:19:22.990Z,15.20
2019-03-31T09:21:52.773Z,14.00
2019-03-31T09:24:20.281Z,15.00
2019-03-31T09:26:50.621Z,15.20
2019-03-31T09:29:18.432Z,15.20
2019-03-31T09:31:46.167Z,9.00
2019-03-31T09:34:13.800Z,13.80
2019-03-31T09:36:41.665Z,13.60
2019-03-31T09:39:09.314Z,7.60
2019-03-31T09:41:36.936Z,4.40
2019-03-31T09:44:07.999Z,9.40
2019-03-31T09:46:37.574Z,12.80
2019-03-31T09:49:05.173Z,6.00
2019-03-31T09:51:32.951Z,9.40
2019-03-31T09:54:00.512Z,11.40
2019-03-31T09:56:28.150Z,11.20
2019-03-31T09:58:56.013Z,9.40
2019-03-31T10:01:25.955Z,5.40
2019-03-31T10:03:53.535Z,7.40
2019-03-31T10:06:30.481Z,9.00
2019-03-31T10:08:53.366Z,9.20
2019-03-31T10:11:20.930Z,10.80
2019-03-31T10:13:48.801Z,10.00
2019-03-31T10:16:17.565Z,9.00
2019-03-31T10:18:45.154Z,10.00
2019-03-31T10:21:13.065Z,8.60
2019-03-31T10:23:40.623Z,9.60
2019-03-31T10:26:08.272Z,9.00
2019-03-31T10:28:36.097Z,8.20
2019-03-31T10:31:03.724Z,3.40
2019-03-31T10:33:31.267Z,7.00
2019-03-31T10:35:59.183Z,7.80
2019-03-31T10:38:27.030Z,6.40
2019-03-31T10:40:54.632Z,7.80
2019-03-31T10:43:24.589Z,8.60
2019-03-31T10:45:52.200Z,9.20
2019-03-31T10:48:21.310Z,12.80
2019-03-31T10:50:49.336Z,5.60
2019-03-31T10:53:23.722Z,7.80
2019-03-31T10:55:51.295Z,6.40
2019-03-31T10:58:22.265Z,6.60
2019-03-31T11:00:50.686Z,7.80
2019-03-31T11:03:20.700Z,7.40
2019-03-31T11:05:48.993Z,7.00
2019-03-31T11:08:18.364Z,6.40
2019-03-31T11:10:47.030Z,6.60
2019-03-31T11:13:14.931Z,8.20
2019-03-31T11:15:42.554Z,7.40
2019-03-31T11:18:12.184Z,9.80
2019-03-31T11:20:45.755Z,9.80
2019-03-31T11:23:24.252Z,3.20
2019-03-31T11:25:54.848Z,7.80
2019-03-31T11:28:22.492Z,11.60
2019-03-31T11:30:50.169Z,9.20
2019-03-31T11:33:17.702Z,6.40
2019-03-31T11:35:47.146Z,4.00
2019-03-31T11:38:20.166Z,7.40
2019-03-31T11:40:48.026Z,4.20
2019-03-31T11:43:17.877Z,9.60
2019-03-31T11:45:45.651Z,9.00
2019-03-31T11:48:13.286Z,8.20
2019-03-31T11:50:43.223Z,6.20
2019-03-31T11:53:11.459Z,8.60
2019-03-31T11:55:39.367Z,5.20
2019-03-31T11:58:11.171Z,7.00
2019-03-31T12:00:43.809Z,8.60
2019-03-31T12:03:11.443Z,8.40
2019-03-31T12:05:38.980Z,6.00
2019-03-31T12:08:08.441Z,4.80
2019-03-31T12:10:45.194Z,8.60
2019-03-31T12:13:13.060Z,6.80
2019-03-31T12:15:42.702Z,8.60
2019-03-31T12:18:13.298Z,6.60
2019-03-31T12:20:41.155Z,7.00
2019-03-31T12:23:13.326Z,4.40
2019-03-31T12:25:47.028Z,9.40
2019-03-31T12:28:14.941Z,5.20
2019-03-31T12:30:45.191Z,6.80
2019-03-31T12:33:15.692Z,9.60
2019-03-31T12:35:50.658Z,6.00
2019-03-31T12:38:18.360Z,4.20
2019-03-31T12:40:45.913Z,6.60
2019-03-31T12:43:16.896Z,8.20
2019-03-31T12:45:44.469Z,6.20
2019-03-31T12:48:13.468Z,9.00
2019-03-31T12:50:45.601Z,9.60
2019-03-31T12:53:16.124Z,8.60
2019-03-31T12:55:59.143Z,6.60
2019-03-31T12:58:15.915Z,3.20
2019-03-31T13:00:43.457Z,7.00
2019-03-31T13:03:12.169Z,7.00
2019-03-31T13:05:39.986Z,9.00
2019-03-31T13:08:07.528Z,3.80
2019-03-31T13:10:38.388Z,6.00
2019-03-31T13:13:16.305Z,5.20
2019-03-31T13:15:45.826Z,6.60
2019-03-31T13:18:15.573Z,4.20
2019-03-31T13:20:50.117Z,4.00
2019-03-31T13:23:17.923Z,6.00
2019-03-31T13:25:45.565Z,4.00
2019-03-31T13:28:16.238Z,3.00
2019-03-31T13:30:44.034Z,6.00
2019-03-31T13:33:13.454Z,6.00
2019-03-31T13:35:41.155Z,6.00
2019-03-31T13:38:11.249Z,3.00
2019-03-31T13:40:38.338Z,4.00
2019-03-31T13:43:06.280Z,6.20
2019-03-31T13:45:34.143Z,5.20
2019-03-31T13:48:05.848Z,4.40
2019-03-31T13:50:35.850Z,6.20
2019-03-31T13:53:06.257Z,7.80
2019-03-31T13:55:33.730Z,6.00
2019-03-31T13:58:02.730Z,6.20
2019-03-31T14:00:30.977Z,3.40
2019-03-31T14:02:58.579Z,6.00
2019-03-31T14:05:28.564Z,4.40
2019-03-31T14:07:59.846Z,5.20
2019-03-31T14:10:31.995Z,5.60
2019-03-31T14:12:59.534Z,6.20
2019-03-31T14:15:29.119Z,4.00
2019-03-31T14:17:56.606Z,3.40
2019-03-31T14:20:24.595Z,5.20
2019-03-31T14:22:52.399Z,5.20
2019-03-31T14:25:23.247Z,6.00
2019-03-31T14:27:50.879Z,5.60
2019-03-31T14:30:18.723Z,5.60
2019-03-31T14:32:46.263Z,4.80
2019-03-31T14:35:14.145Z,4.80
2019-03-31T14:37:42.010Z,4.00
2019-03-31T14:40:10.835Z,3.80
2019-03-31T14:42:40.226Z,3.80
2019-03-31T14:45:10.983Z,4.00
2019-03-31T14:47:40.882Z,6.00
2019-03-31T14:50:08.473Z,3.80
2019-03-31T14:52:36.219Z,4.40
2019-03-31T14:55:03.926Z,4.40
2019-03-31T14:57:33.827Z,4.80
2019-03-31T15:00:14.182Z,4.00
2019-03-31T15:02:36.874Z,4.80
2019-03-31T15:05:04.404Z,3.80
2019-03-31T15:07:34.181Z,2.60
2019-03-31T15:10:01.758Z,3.20
2019-03-31T15:12:33.094Z,6.80
2019-03-31T15:15:00.914Z,4.00
2019-03-31T15:17:28.524Z,4.00
2019-03-31T15:20:02.205Z,6.00
2019-03-31T15:22:30.085Z,4.00
2019-03-31T15:24:57.713Z,3.20
2019-03-31T15:27:25.260Z,4.00
2019-03-31T15:29:53.116Z,5.20
2019-03-31T15:32:22.423Z,3.00
2019-03-31T15:34:50.206Z,4.40
2019-03-31T15:37:20.388Z,3.00
2019-03-31T15:39:51.287Z,3.40
2019-03-31T15:42:20.225Z,4.00
2019-03-31T15:44:47.739Z,5.60
2019-03-31T15:47:16.441Z,4.80
2019-03-31T15:49:44.356Z,4.00
2019-03-31T15:52:12.130Z,4.00
2019-03-31T15:54:39.787Z,4.20
2019-03-31T15:57:09.688Z,5.20
2019-03-31T15:59:40.655Z,3.00
2019-03-31T16:02:08.225Z,4.00
2019-03-31T16:04:40.218Z,5.20
2019-03-31T16:07:07.842Z,6.00
2019-03-31T16:09:37.748Z,4.00
2019-03-31T16:12:05.369Z,6.00
2019-03-31T16:14:33.204Z,3.20
2019-03-31T16:17:01.031Z,3.20
2019-03-31T16:19:28.612Z,3.40
2019-03-31T16:21:56.212Z,3.00
2019-03-31T16:24:36.446Z,4.00
2019-03-31T16:27:04.003Z,3.20
2019-03-31T16:29:34.740Z,3.00
2019-03-31T16:32:05.232Z,4.00
2019-03-31T16:34:35.244Z,1.00
2019-03-31T16:37:03.144Z,3.40
2019-03-31T16:39:37.467Z,3.00
2019-03-31T16:41:59.858Z,3.00
2019-03-31T16:44:30.762Z,4.00
2019-03-31T16:46:58.652Z,0.00
2019-03-31T16:49:26.190Z,6.00
2019-03-31T16:51:53.919Z,1.40
2019-03-31T16:54:21.470Z,3.00
2019-03-31T16:56:49.065Z,3.00
2019-03-31T16:59:18.464Z,3.00
2019-03-31T17:01:47.992Z,3.00
2019-03-31T17:04:17.220Z,2.60
2019-03-31T17:06:47.997Z,3.00
2019-03-31T17:09:15.571Z,3.40
2019-03-31T17:11:46.559Z,3.00
2019-03-31T17:14:21.511Z,3.00
2019-03-31T17:16:51.811Z,2.60
2019-03-31T17:19:26.679Z,3.60
2019-03-31T17:21:54.288Z,2.60
2019-03-31T17:24:23.847Z,3.20
2019-03-31T17:26:51.376Z,3.60
2019-03-31T17:29:19.194Z,3.20
2019-03-31T17:31:48.091Z,3.60
2019-03-31T17:34:15.930Z,3.00
2019-03-31T17:36:45.292Z,3.20
2019-03-31T17:39:15.872Z,3.60
2019-03-31T17:41:43.728Z,4.00
2019-03-31T17:44:11.330Z,4.00
2019-03-31T17:46:40.371Z,3.20
2019-03-31T17:49:10.055Z,3.20
2019-03-31T17:51:37.582Z,0.40
2019-03-31T17:54:08.495Z,4.00
2019-03-31T17:56:38.109Z,4.00
2019-03-31T17:59:08.898Z,4.00
2019-03-31T18:01:39.228Z,4.00
2019-03-31T18:04:07.201Z,2.60
2019-03-31T18:06:37.047Z,2.20
2019-03-31T18:09:05.733Z,3.60
2019-03-31T18:11:33.667Z,4.00
2019-03-31T18:14:02.248Z,3.00
2019-03-31T18:16:34.003Z,3.40
2019-03-31T18:19:01.911Z,2.20
2019-03-31T18:21:29.488Z,3.60
2019-03-31T18:23:57.162Z,3.00
2019-03-31T18:26:25.013Z,3.80
2019-03-31T18:28:52.958Z,3.00
2019-03-31T18:31:20.533Z,3.20
2019-03-31T18:33:48.385Z,3.80
2019-03-31T18:36:19.460Z,3.60
2019-03-31T18:38:47.355Z,1.80
2019-03-31T18:41:15.144Z,3.00
2019-03-31T18:43:51.303Z,3.00
2019-03-31T18:46:16.501Z,3.80
2019-03-31T18:48:44.332Z,3.00
2019-03-31T18:51:11.924Z,3.40
2019-03-31T18:54:01.422Z,1.80
2019-03-31T18:56:48.157Z,3.00
2019-03-31T18:59:43.651Z,3.00
2019-03-31T19:02:25.157Z,3.20
2019-03-31T19:05:20.303Z,2.60
2019-03-31T19:07:58.984Z,4.00
2019-03-31T19:10:49.766Z,3.00
2019-03-31T19:13:35.144Z,13.80
2019-03-31T19:16:15.293Z,6.00
2019-03-31T19:18:54.347Z,1.00
2019-03-31T19:21:45.881Z,6.20
2019-03-31T19:24:31.274Z,4.40
2019-03-31T19:27:26.542Z,3.80
2019-03-31T19:30:15.693Z,1.40
2019-03-31T19:33:07.361Z,5.60
2019-03-31T19:35:41.402Z,4.00
2019-03-31T19:38:31.377Z,3.80
2019-03-31T19:41:18.378Z,6.00
2019-03-31T19:44:02.056Z,4.00
2019-03-31T19:46:52.035Z,4.40
2019-03-31T19:49:34.695Z,4.00
2019-03-31T19:52:20.142Z,6.80
2019-03-31T19:55:06.630Z,3.60
2019-03-31T19:57:59.248Z,4.00
2019-03-31T20:01:05.493Z,5.20
2019-03-31T20:03:58.324Z,4.00
2019-03-31T20:06:53.443Z,3.00
2019-03-31T20:09:43.006Z,3.60
2019-03-31T20:12:28.056Z,3.20
2019-03-31T20:15:13.169Z,4.00
2019-03-31T20:17:53.406Z,1.00
2019-03-31T20:20:38.529Z,4.00
2019-03-31T20:23:22.079Z,3.80
2019-03-31T20:26:23.693Z,3.20
2019-03-31T20:29:17.494Z,3.40
2019-03-31T20:32:17.846Z,4.40
2019-03-31T20:35:15.827Z,3.60
2019-03-31T20:38:08.253Z,4.00
2019-03-31T20:40:49.810Z,2.60
2019-03-31T20:43:33.035Z,3.60
2019-03-31T20:46:04.162Z,3.00
2019-03-31T20:48:30.141Z,2.60
2019-03-31T20:50:57.741Z,4.00
2019-03-31T20:53:25.727Z,3.00
2019-03-31T20:55:53.675Z,4.00
2019-03-31T20:58:21.236Z,3.20
2019-03-31T21:00:48.816Z,3.00
2019-03-31T21:03:16.984Z,3.80
2019-03-31T21:05:44.592Z,1.40
2019-03-31T21:08:15.199Z,3.00
2019-03-31T21:10:44.711Z,4.00
2019-03-31T21:13:12.467Z,1.00
2019-03-31T21:15:41.201Z,3.00
2019-03-31T21:18:09.210Z,3.00
2019-03-31T21:20:36.795Z,0.60
2019-03-31T21:23:06.277Z,1.00
2019-03-31T21:25:33.918Z,3.00
2019-03-31T21:28:01.899Z,3.00
2019-03-31T21:30:29.472Z,1.00
2019-03-31T21:32:59.845Z,3.00
2019-03-31T21:35:30.895Z,2.20
2019-03-31T21:37:58.395Z,1.00
2019-03-31T21:40:25.995Z,1.00
2019-03-31T21:42:54.860Z,1.00
2019-03-31T21:45:24.213Z,1.00
2019-03-31T21:47:51.913Z,3.00
2019-03-31T21:50:19.715Z,1.40
2019-03-31T21:52:48.479Z,1.80
2019-03-31T21:55:19.037Z,1.00
2019-03-31T21:57:46.610Z,0.00
2019-03-31T22:00:14.500Z,1.00
2019-03-31T22:02:42.033Z,1.40
2019-03-31T22:05:09.561Z,1.40
2019-03-31T22:07:37.116Z,1.00
2019-03-31T22:10:09.112Z,1.00
2019-03-31T22:12:36.637Z,0.80
2019-03-31T22:15:04.495Z,1.00
2019-03-31T22:17:32.003Z,0.60
2019-03-31T22:20:02.727Z,0.00
2019-03-31T22:22:32.164Z,0.00
2019-03-31T22:24:59.629Z,0.00
2019-03-31T22:27:28.400Z,0.00
2019-03-31T22:29:56.233Z,0.40
2019-03-31T22:32:26.933Z,0.00
2019-03-31T22:34:54.403Z,0.00
2019-03-31T22:37:24.988Z,0.00
2019-03-31T22:39:52.452Z,0.00
2019-03-31T22:42:20.025Z,0.00
2019-03-31T22:44:47.911Z,0.00
2019-03-31T22:47:15.718Z,0.40
2019-03-31T22:49:43.299Z,0.00
2019-03-31T22:52:11.202Z,0.20
2019-03-31T22:54:38.805Z,0.00
2019-03-31T22:57:06.314Z,1.00
2019-03-31T22:59:33.795Z,0.00
2019-03-31T23:02:04.251Z,0.60
2019-03-31T23:04:31.890Z,0.00
2019-03-31T23:06:59.469Z,1.00
2019-03-31T23:09:27.062Z,0.40
2019-03-31T23:11:54.637Z,0.80
2019-03-31T23:14:22.239Z,0.80
2019-03-31T23:16:49.974Z,1.00
2019-03-31T23:19:17.577Z,0.40
2019-03-31T23:21:45.063Z,0.00
2019-03-31T23:24:12.679Z,0.00
2019-03-31T23:26:40.573Z,0.00
2019-03-31T23:29:10.869Z,0.00
2019-03-31T23:31:38.485Z,0.00
2019-03-31T23:34:08.920Z,0.00
2019-03-31T23:36:36.738Z,0.00
2019-03-31T23:39:05.259Z,0.00
2019-03-31T23:41:32.868Z,0.00
2019-03-31T23:44:00.762Z,0.00
2019-03-31T23:46:28.599Z,0.00
2019-03-31T23:48:56.173Z,0.00
2019-03-31T23:51:23.795Z,1.00
2019-03-31T23:53:51.410Z,0.00
2019-03-31T23:56:19.227Z,0.00
2019-03-31T23:58:46.763Z,0.60
